createdAt,value
2022-09-01T00:00:53.698Z,1015.70
2022-09-01T00:01:53.703Z,1015.64
2022-09-01T00:02:53.766Z,1015.67
2022-09-01T00:03:53.703Z,1015.70
2022-09-01T00:04:53.645Z,1015.67
2022-09-01T00:05:53.638Z,1015.64
2022-09-01T00:06:53.634Z,1015.59
2022-09-01T00:07:53.626Z,1015.64
2022-09-01T00:08:53.599Z,1015.65
2022-09-01T00:09:53.589Z,1015.60
2022-09-01T00:10:53.577Z,1015.60
2022-09-01T00:11:53.567Z,1015.58
2022-09-01T00:12:53.606Z,1015.59
2022-09-01T00:13:53.541Z,1015.61
2022-09-01T00:14:53.529Z,1015.57
2022-09-01T00:15:53.565Z,1015.60
2022-09-01T00:16:53.513Z,1015.59
2022-09-01T00:17:53.519Z,1015.60
2022-09-01T00:18:53.497Z,1015.63
2022-09-01T00:19:53.476Z,1015.59
2022-09-01T00:20:53.463Z,1015.69
2022-09-01T00:21:53.456Z,1015.67
2022-09-01T00:22:53.442Z,1015.65
2022-09-01T00:23:53.443Z,1015.66
2022-09-01T00:24:53.427Z,1015.57
2022-09-01T00:25:53.406Z,1015.64
2022-09-01T00:26:53.395Z,1015.64
2022-09-01T00:27:53.383Z,1015.59
2022-09-01T00:28:53.389Z,1015.63
2022-09-01T00:29:53.363Z,1015.67
2022-09-01T00:30:53.432Z,1015.68
2022-09-01T00:31:53.339Z,1015.68
2022-09-01T00:32:53.325Z,1015.75
2022-09-01T00:33:53.321Z,1015.70
2022-09-01T00:34:53.314Z,1015.73
2022-09-01T00:35:53.291Z,1015.78
2022-09-01T00:36:53.299Z,1015.68
2022-09-01T00:37:53.271Z,1015.72
2022-09-01T00:38:53.259Z,1015.68
2022-09-01T00:39:53.257Z,1015.71
2022-09-01T00:40:53.328Z,1015.64
2022-09-01T00:41:53.240Z,1015.70
2022-09-01T00:42:53.211Z,1015.68
2022-09-01T00:43:53.202Z,1015.67
2022-09-01T00:44:53.210Z,1015.64
2022-09-01T00:45:53.255Z,1015.68
2022-09-01T00:46:55.367Z,1015.64
2022-09-01T00:47:53.174Z,1015.64
2022-09-01T00:48:53.144Z,1015.63
2022-09-01T00:49:53.156Z,1015.62
2022-09-01T00:50:54.647Z,1015.60
2022-09-01T00:51:53.109Z,1015.61
2022-09-01T00:52:53.120Z,1015.62
2022-09-01T00:53:53.094Z,1015.63
2022-09-01T00:54:53.080Z,1015.59
2022-09-01T00:55:53.077Z,1015.60
2022-09-01T00:56:57.391Z,1015.61
2022-09-01T00:57:53.044Z,1015.59
2022-09-01T00:58:53.041Z,1015.62
2022-09-01T00:59:53.021Z,1015.57
2022-09-01T01:00:53.029Z,1015.58
2022-09-01T01:01:53.039Z,1015.53
2022-09-01T01:02:53.032Z,1015.57
2022-09-01T01:03:52.979Z,1015.52
2022-09-01T01:04:53.018Z,1015.53
2022-09-01T01:05:52.950Z,1015.52
2022-09-01T01:06:52.952Z,1015.54
2022-09-01T01:07:52.927Z,1015.58
2022-09-01T01:08:52.916Z,1015.50
2022-09-01T01:09:52.907Z,1015.59
2022-09-01T01:10:52.928Z,1015.54
2022-09-01T01:11:52.884Z,1015.60
2022-09-01T01:12:52.865Z,1015.59
2022-09-01T01:13:52.858Z,1015.57
2022-09-01T01:14:52.861Z,1015.57
2022-09-01T01:15:52.852Z,1015.54
2022-09-01T01:16:52.914Z,1015.52
2022-09-01T01:17:52.829Z,1015.54
2022-09-01T01:18:52.805Z,1015.50
2022-09-01T01:19:52.790Z,1015.51
2022-09-01T01:20:52.791Z,1015.59
2022-09-01T01:21:52.771Z,1015.59
2022-09-01T01:22:52.784Z,1015.57
2022-09-01T01:23:52.745Z,1015.56
2022-09-01T01:24:52.731Z,1015.55
2022-09-01T01:25:52.733Z,1015.51
2022-09-01T01:26:52.713Z,1015.53
2022-09-01T01:27:53.449Z,1015.55
2022-09-01T01:28:52.692Z,1015.56
2022-09-01T01:29:52.676Z,1015.56
2022-09-01T01:30:52.874Z,1015.57
2022-09-01T01:31:52.653Z,1015.51
2022-09-01T01:32:52.643Z,1015.57
2022-09-01T01:33:52.637Z,1015.61
2022-09-01T01:34:52.625Z,1015.53
2022-09-01T01:35:52.644Z,1015.56
2022-09-01T01:36:52.598Z,1015.56
2022-09-01T01:37:52.585Z,1015.55
2022-09-01T01:38:52.571Z,1015.59
2022-09-01T01:39:52.560Z,1015.55
2022-09-01T01:40:52.581Z,1015.57
2022-09-01T01:41:52.555Z,1015.49
2022-09-01T01:42:52.524Z,1015.55
2022-09-01T01:43:52.517Z,1015.57
2022-09-01T01:44:52.501Z,1015.62
2022-09-01T01:45:53.558Z,1015.56
2022-09-01T01:46:52.517Z,1015.61
2022-09-01T01:47:52.475Z,1015.64
2022-09-01T01:48:52.521Z,1015.74
2022-09-01T01:49:52.449Z,1015.69
2022-09-01T01:50:52.439Z,1015.68
2022-09-01T01:51:52.441Z,1015.68
2022-09-01T01:52:55.182Z,1015.73
2022-09-01T01:53:53.406Z,1015.71
2022-09-01T01:54:52.391Z,1015.72
2022-09-01T01:55:52.380Z,1015.76
2022-09-01T01:56:52.371Z,1015.66
2022-09-01T01:57:52.367Z,1015.69
2022-09-01T01:58:52.398Z,1015.71
2022-09-01T01:59:52.339Z,1015.71
2022-09-01T02:00:52.321Z,1015.68
2022-09-01T02:01:52.359Z,1015.67
2022-09-01T02:02:52.454Z,1015.68
2022-09-01T02:03:52.302Z,1015.65
2022-09-01T02:04:52.304Z,1015.64
2022-09-01T02:05:52.272Z,1015.66
2022-09-01T02:06:52.260Z,1015.64
2022-09-01T02:07:52.246Z,1015.69
2022-09-01T02:08:52.254Z,1015.67
2022-09-01T02:09:52.237Z,1015.72
2022-09-01T02:10:52.210Z,1015.68
2022-09-01T02:11:52.200Z,1015.68
2022-09-01T02:12:52.185Z,1015.72
2022-09-01T02:13:52.181Z,1015.69
2022-09-01T02:14:52.191Z,1015.71
2022-09-01T02:15:52.162Z,1015.72
2022-09-01T02:16:52.290Z,1015.70
2022-09-01T02:17:52.133Z,1015.76
2022-09-01T02:18:52.143Z,1015.77
2022-09-01T02:19:52.114Z,1015.76
2022-09-01T02:20:59.572Z,1015.75
2022-09-01T02:21:52.086Z,1015.74
2022-09-01T02:22:52.071Z,1015.73
2022-09-01T02:23:52.063Z,1015.76
2022-09-01T02:24:52.059Z,1015.77
2022-09-01T02:26:14.512Z,1015.73
2022-09-01T02:26:53.042Z,1015.76
2022-09-01T02:27:52.018Z,1015.74
2022-09-01T02:28:55.261Z,1015.73
2022-09-01T02:29:52.008Z,1015.71
2022-09-01T02:30:52.085Z,1015.72
2022-09-01T02:31:51.973Z,1015.77
2022-09-01T02:32:51.978Z,1015.71
2022-09-01T02:33:51.981Z,1015.71
2022-09-01T02:34:51.936Z,1015.71
2022-09-01T02:35:51.936Z,1015.70
2022-09-01T02:36:51.923Z,1015.71
2022-09-01T02:37:51.942Z,1015.77
2022-09-01T02:38:53.428Z,1015.69
2022-09-01T02:39:51.888Z,1015.74
2022-09-01T02:40:51.891Z,1015.71
2022-09-01T02:41:51.866Z,1015.72
2022-09-01T02:42:51.853Z,1015.65
2022-09-01T02:43:51.871Z,1015.71
2022-09-01T02:44:51.836Z,1015.65
2022-09-01T02:45:51.874Z,1015.67
2022-09-01T02:46:51.808Z,1015.67
2022-09-01T02:47:51.799Z,1015.66
2022-09-01T02:48:51.779Z,1015.63
2022-09-01T02:49:51.781Z,1015.63
2022-09-01T02:50:51.756Z,1015.61
2022-09-01T02:51:51.764Z,1015.62
2022-09-01T02:52:51.737Z,1015.62
2022-09-01T02:53:51.749Z,1015.58
2022-09-01T02:54:51.735Z,1015.65
2022-09-01T02:55:51.712Z,1015.61
2022-09-01T02:56:51.690Z,1015.59
2022-09-01T02:57:51.680Z,1015.54
2022-09-01T02:58:51.675Z,1015.59
2022-09-01T02:59:51.689Z,1015.60
2022-09-01T03:00:51.672Z,1015.57
2022-09-01T03:01:51.637Z,1015.59
2022-09-01T03:02:51.623Z,1015.53
2022-09-01T03:03:51.614Z,1015.58
2022-09-01T03:04:51.663Z,1015.56
2022-09-01T03:05:51.593Z,1015.63
2022-09-01T03:06:51.582Z,1015.60
2022-09-01T03:07:51.567Z,1015.61
2022-09-01T03:08:51.556Z,1015.66
2022-09-01T03:09:51.549Z,1015.69
2022-09-01T03:10:51.552Z,1015.66
2022-09-01T03:11:51.555Z,1015.59
2022-09-01T03:12:51.519Z,1015.68
2022-09-01T03:13:51.501Z,1015.71
2022-09-01T03:14:51.491Z,1015.69
2022-09-01T03:15:51.486Z,1015.72
2022-09-01T03:16:51.578Z,1015.72
2022-09-01T03:17:51.454Z,1015.80
2022-09-01T03:18:51.461Z,1015.78
2022-09-01T03:19:51.432Z,1015.78
2022-09-01T03:20:51.425Z,1015.71
2022-09-01T03:21:51.432Z,1015.77
2022-09-01T03:22:51.401Z,1015.76
2022-09-01T03:23:51.389Z,1015.71
2022-09-01T03:24:51.376Z,1015.77
2022-09-01T03:25:51.401Z,1015.75
2022-09-01T03:26:51.376Z,1015.78
2022-09-01T03:27:51.360Z,1015.86
2022-09-01T03:28:51.334Z,1015.79
2022-09-01T03:29:51.324Z,1015.80
2022-09-01T03:30:51.305Z,1015.81
2022-09-01T03:31:51.408Z,1015.77
2022-09-01T03:32:51.289Z,1015.74
2022-09-01T03:33:51.271Z,1015.75
2022-09-01T03:34:51.263Z,1015.85
2022-09-01T03:35:51.282Z,1015.79
2022-09-01T03:36:51.251Z,1015.78
2022-09-01T03:37:51.240Z,1015.83
2022-09-01T03:38:51.225Z,1015.76
2022-09-01T03:39:51.212Z,1015.74
2022-09-01T03:40:52.199Z,1015.79
2022-09-01T03:41:51.184Z,1015.75
2022-09-01T03:42:51.211Z,1015.74
2022-09-01T03:43:51.158Z,1015.73
2022-09-01T03:44:51.153Z,1015.78
2022-09-01T03:45:51.197Z,1015.77
2022-09-01T03:46:51.136Z,1015.77
2022-09-01T03:47:51.116Z,1015.75
2022-09-01T03:48:51.118Z,1015.73
2022-09-01T03:49:51.113Z,1015.69
2022-09-01T03:50:51.084Z,1015.73
2022-09-01T03:51:51.075Z,1015.71
2022-09-01T03:52:51.060Z,1015.74
2022-09-01T03:53:51.065Z,1015.72
2022-09-01T03:54:51.043Z,1015.67
2022-09-01T03:55:51.041Z,1015.69
2022-09-01T03:56:51.018Z,1015.68
2022-09-01T03:57:51.004Z,1015.67
2022-09-01T03:58:51.019Z,1015.68
2022-09-01T03:59:50.981Z,1015.65
2022-09-01T04:00:51.022Z,1015.67
2022-09-01T04:01:51.004Z,1015.76
2022-09-01T04:02:56.197Z,1015.68
2022-09-01T04:03:51.966Z,1015.74
2022-09-01T04:04:50.927Z,1015.68
2022-09-01T04:05:50.916Z,1015.63
2022-09-01T04:06:50.927Z,1015.72
2022-09-01T04:07:50.890Z,1015.63
2022-09-01T04:08:50.883Z,1015.70
2022-09-01T04:09:50.877Z,1015.65
2022-09-01T04:10:52.598Z,1015.72
2022-09-01T04:11:50.857Z,1015.67
2022-09-01T04:12:50.897Z,1015.68
2022-09-01T04:13:50.842Z,1015.67
2022-09-01T04:14:50.816Z,1015.64
2022-09-01T04:15:50.801Z,1015.69
2022-09-01T04:16:50.856Z,1015.69
2022-09-01T04:17:50.790Z,1015.69
2022-09-01T04:18:50.771Z,1015.75
2022-09-01T04:19:50.766Z,1015.64
2022-09-01T04:20:50.747Z,1015.66
2022-09-01T04:21:50.783Z,1015.66
2022-09-01T04:22:50.763Z,1015.69
2022-09-01T04:23:50.730Z,1015.69
2022-09-01T04:24:50.723Z,1015.79
2022-09-01T04:25:50.685Z,1015.70
2022-09-01T04:26:50.680Z,1015.70
2022-09-01T04:27:50.664Z,1015.69
2022-09-01T04:28:50.658Z,1015.71
2022-09-01T04:29:50.669Z,1015.69
2022-09-01T04:30:51.956Z,1015.71
2022-09-01T04:31:50.701Z,1015.69
2022-09-01T04:32:50.626Z,1015.68
2022-09-01T04:33:50.594Z,1015.72
2022-09-01T04:34:50.601Z,1015.71
2022-09-01T04:35:50.587Z,1015.67
2022-09-01T04:36:50.566Z,1015.70
2022-09-01T04:37:50.551Z,1015.68
2022-09-01T04:38:50.560Z,1015.70
2022-09-01T04:39:55.360Z,1015.74
2022-09-01T04:40:51.576Z,1015.71
2022-09-01T04:41:50.508Z,1015.75
2022-09-01T04:42:50.496Z,1015.80
2022-09-01T04:43:50.493Z,1015.73
2022-09-01T04:44:50.475Z,1015.72
2022-09-01T04:45:50.503Z,1015.68
2022-09-01T04:46:50.479Z,1015.73
2022-09-01T04:47:50.441Z,1015.76
2022-09-01T04:48:50.432Z,1015.71
2022-09-01T04:49:50.428Z,1015.70
2022-09-01T04:50:50.420Z,1015.68
2022-09-01T04:51:53.728Z,1015.66
2022-09-01T04:52:50.384Z,1015.67
2022-09-01T04:53:50.368Z,1015.71
2022-09-01T04:54:50.367Z,1015.66
2022-09-01T04:55:50.380Z,1015.73
2022-09-01T04:56:50.366Z,1015.72
2022-09-01T04:57:50.329Z,1015.70
2022-09-01T04:58:50.315Z,1015.64
2022-09-01T04:59:50.304Z,1015.71
2022-09-01T05:00:50.343Z,1015.64
2022-09-01T05:01:50.474Z,1015.70
2022-09-01T05:02:50.273Z,1015.68
2022-09-01T05:03:50.258Z,1015.62
2022-09-01T05:04:50.250Z,1015.68
2022-09-01T05:05:50.259Z,1015.64
2022-09-01T05:06:50.238Z,1015.59
2022-09-01T05:07:50.213Z,1015.63
2022-09-01T05:08:50.208Z,1015.66
2022-09-01T05:09:50.191Z,1015.65
2022-09-01T05:10:50.186Z,1015.67
2022-09-01T05:11:50.208Z,1015.61
2022-09-01T05:12:50.161Z,1015.67
2022-09-01T05:13:50.145Z,1015.64
2022-09-01T05:14:50.137Z,1015.66
2022-09-01T05:15:50.259Z,1015.60
2022-09-01T05:16:50.235Z,1015.59
2022-09-01T05:17:50.103Z,1015.66
2022-09-01T05:18:50.090Z,1015.60
2022-09-01T05:19:50.078Z,1015.60
2022-09-01T05:20:50.068Z,1015.62
2022-09-01T05:21:50.072Z,1015.68
2022-09-01T05:22:50.046Z,1015.67
2022-09-01T05:23:50.028Z,1015.66
2022-09-01T05:24:50.025Z,1015.68
2022-09-01T05:25:50.031Z,1015.73
2022-09-01T05:26:50.018Z,1015.75
2022-09-01T05:27:50.057Z,1015.69
2022-09-01T05:28:49.982Z,1015.77
2022-09-01T05:29:49.963Z,1015.78
2022-09-01T05:30:49.957Z,1015.75
2022-09-01T05:31:50.515Z,1015.70
2022-09-01T05:32:49.950Z,1015.77
2022-09-01T05:33:49.919Z,1015.75
2022-09-01T05:34:49.926Z,1015.73
2022-09-01T05:35:49.897Z,1015.77
2022-09-01T05:36:49.897Z,1015.79
2022-09-01T05:37:49.872Z,1015.79
2022-09-01T05:38:49.865Z,1015.74
2022-09-01T05:39:49.854Z,1015.70
2022-09-01T05:40:49.891Z,1015.76
2022-09-01T05:41:49.851Z,1015.77
2022-09-01T05:42:49.831Z,1015.74
2022-09-01T05:43:49.837Z,1015.76
2022-09-01T05:44:49.820Z,1015.76
2022-09-01T05:46:05.713Z,1015.76
2022-09-01T05:46:50.893Z,1015.75
2022-09-01T05:47:49.772Z,1015.77
2022-09-01T05:48:49.755Z,1015.77
2022-09-01T05:49:49.810Z,1015.78
2022-09-01T05:50:49.729Z,1015.77
2022-09-01T05:51:50.923Z,1015.75
2022-09-01T05:52:49.723Z,1015.81
2022-09-01T05:53:49.698Z,1015.80
2022-09-01T05:54:49.946Z,1015.80
2022-09-01T05:55:49.676Z,1015.85
2022-09-01T05:56:49.661Z,1015.86
2022-09-01T05:57:49.663Z,1015.87
2022-09-01T05:59:50.640Z,1015.98
2022-09-01T06:00:49.619Z,1015.98
2022-09-01T06:01:50.680Z,1015.88
2022-09-01T06:02:49.750Z,1015.82
2022-09-01T06:03:49.584Z,1015.82
2022-09-01T06:04:49.601Z,1015.88
2022-09-01T06:05:49.560Z,1015.83
2022-09-01T06:07:06.728Z,1015.82
2022-09-01T06:07:50.587Z,1015.87
2022-09-01T06:08:49.527Z,1015.86
2022-09-01T06:09:49.513Z,1015.84
2022-09-01T06:10:49.503Z,1015.80
2022-09-01T06:11:49.491Z,1015.92
2022-09-01T06:12:49.514Z,1015.91
2022-09-01T06:13:53.503Z,1015.89
2022-09-01T06:14:50.461Z,1015.94
2022-09-01T06:15:49.491Z,1015.89
2022-09-01T06:16:49.443Z,1015.87
2022-09-01T06:17:49.445Z,1015.94
2022-09-01T06:18:49.416Z,1015.89
2022-09-01T06:19:49.399Z,1015.92
2022-09-01T06:20:49.389Z,1015.92
2022-09-01T06:21:49.375Z,1015.99
2022-09-01T06:22:49.376Z,1015.96
2022-09-01T06:23:49.353Z,1016.06
2022-09-01T06:24:54.488Z,1016.09
2022-09-01T06:25:50.334Z,1016.06
2022-09-01T06:26:49.326Z,1016.09
2022-09-01T06:27:49.320Z,1016.05
2022-09-01T06:28:49.299Z,1015.99
2022-09-01T06:29:49.283Z,1016.09
2022-09-01T06:30:49.280Z,1015.98
2022-09-01T06:31:49.320Z,1016.02
2022-09-01T06:32:49.285Z,1015.99
2022-09-01T06:33:49.269Z,1016.02
2022-09-01T06:34:49.261Z,1015.99
2022-09-01T06:35:49.222Z,1016.04
2022-09-01T06:36:49.212Z,1016.01
2022-09-01T06:37:49.214Z,1016.00
2022-09-01T06:38:49.197Z,1016.01
2022-09-01T06:39:49.194Z,1016.05
2022-09-01T06:40:50.994Z,1016.02
2022-09-01T06:41:49.153Z,1016.07
2022-09-01T06:42:49.153Z,1016.07
2022-09-01T06:43:51.500Z,1016.02
2022-09-01T06:44:49.335Z,1016.10
2022-09-01T06:45:49.394Z,1016.13
2022-09-01T06:46:49.879Z,1016.08
2022-09-01T06:47:49.275Z,1016.07
2022-09-01T06:48:49.629Z,1016.17
2022-09-01T06:49:51.121Z,1016.19
2022-09-01T06:51:50.212Z,1016.15
2022-09-01T06:53:52.977Z,1016.13
2022-09-01T06:54:49.310Z,1016.17
2022-09-01T06:55:49.706Z,1016.15
2022-09-01T06:56:51.393Z,1016.20
2022-09-01T06:58:06.558Z,1016.22
2022-09-01T06:58:54.569Z,1016.14
2022-09-01T06:59:49.585Z,1016.19
2022-09-01T07:00:50.553Z,1016.22
2022-09-01T07:02:01.507Z,1016.17
2022-09-01T07:02:52.327Z,1016.20
2022-09-01T08:21:02.342Z,1016.04
2022-09-01T08:22:02.533Z,1016.05
2022-09-01T08:23:02.312Z,1016.08
2022-09-01T08:24:02.296Z,1016.18
2022-09-01T08:25:02.295Z,1016.07
2022-09-01T08:26:02.282Z,1016.12
2022-09-01T08:27:02.265Z,1016.11
2022-09-01T08:28:02.275Z,1016.05
2022-09-01T08:29:02.249Z,1016.09
2022-09-01T08:30:02.274Z,1016.09
2022-09-01T08:31:02.282Z,1016.12
2022-09-01T08:32:02.282Z,1016.12
2022-09-01T08:33:10.152Z,1016.16
2022-09-01T08:34:03.184Z,1016.14
2022-09-01T08:35:02.177Z,1016.15
2022-09-01T08:36:02.162Z,1016.14
2022-09-01T08:37:02.179Z,1016.11
2022-09-01T08:38:02.149Z,1016.12
2022-09-01T08:39:02.126Z,1016.16
2022-09-01T08:40:04.094Z,1016.09
2022-09-01T08:41:02.198Z,1016.14
2022-09-01T08:42:02.094Z,1016.07
2022-09-01T08:43:02.107Z,1016.02
2022-09-01T08:44:02.072Z,1015.95
2022-09-01T08:45:02.066Z,1015.97
2022-09-01T08:46:02.095Z,1016.00
2022-09-01T08:47:02.059Z,1016.00
2022-09-01T08:48:37.012Z,1016.02
2022-09-01T08:49:24.623Z,1015.95
2022-09-01T08:50:05.988Z,1016.00
2022-09-01T08:51:02.307Z,1015.98
2022-09-01T08:52:01.997Z,1016.03
2022-09-01T08:53:09.483Z,1015.96
2022-09-01T08:54:02.971Z,1015.98
2022-09-01T08:55:01.950Z,1016.02
2022-09-01T08:56:01.949Z,1015.98
2022-09-01T08:57:01.926Z,1016.01
2022-09-01T08:58:02.254Z,1015.94
2022-09-01T08:59:02.955Z,1016.06
2022-09-01T09:00:01.932Z,1015.99
2022-09-01T09:01:01.888Z,1016.00
2022-09-01T09:02:01.935Z,1015.98
2022-09-01T09:03:01.985Z,1015.97
2022-09-01T09:04:01.858Z,1015.98
2022-09-01T09:05:02.006Z,1016.07
2022-09-01T09:06:01.836Z,1015.94
2022-09-01T09:07:01.809Z,1015.93
2022-09-01T09:08:09.042Z,1015.91
2022-09-01T09:09:02.824Z,1015.94
2022-09-01T09:10:01.780Z,1015.89
2022-09-01T09:11:01.767Z,1015.92
2022-09-01T09:12:01.770Z,1015.87
2022-09-01T09:13:01.759Z,1015.89
2022-09-01T09:14:01.756Z,1015.95
2022-09-01T09:15:01.741Z,1015.80
2022-09-01T09:16:09.050Z,1015.86
2022-09-01T09:17:02.707Z,1015.86
2022-09-01T09:18:01.691Z,1015.89
2022-09-01T09:19:01.678Z,1015.87
2022-09-01T09:20:01.689Z,1015.85
2022-09-01T09:21:01.666Z,1015.87
2022-09-01T09:22:02.001Z,1015.78
2022-09-01T09:23:03.836Z,1015.84
2022-09-01T09:24:01.644Z,1015.80
2022-09-01T09:25:01.632Z,1015.78
2022-09-01T09:26:01.607Z,1015.78
2022-09-01T09:27:01.588Z,1015.78
2022-09-01T09:28:01.611Z,1015.78
2022-09-01T09:29:01.582Z,1015.78
2022-09-01T09:30:07.322Z,1015.84
2022-09-01T09:31:02.584Z,1015.83
2022-09-01T09:32:01.969Z,1015.85
2022-09-01T09:34:02.513Z,1015.71
2022-09-01T09:35:01.520Z,1015.72
2022-09-01T09:36:01.493Z,1015.70
2022-09-01T09:37:01.491Z,1015.66
2022-09-01T09:38:01.474Z,1015.75
2022-09-01T09:39:01.482Z,1015.65
2022-09-01T09:40:01.466Z,1015.63
2022-09-01T09:41:19.004Z,1015.75
2022-09-01T09:42:02.441Z,1015.68
2022-09-01T09:43:01.918Z,1015.67
2022-09-01T09:44:01.417Z,1015.59
2022-09-01T09:45:01.429Z,1015.65
2022-09-01T09:46:01.422Z,1015.70
2022-09-01T09:47:01.459Z,1015.72
2022-09-01T09:48:01.365Z,1015.71
2022-09-01T09:49:01.352Z,1015.79
2022-09-01T09:50:01.357Z,1015.71
2022-09-01T09:51:01.342Z,1015.71
2022-09-01T09:52:01.323Z,1015.59
2022-09-01T09:53:01.310Z,1015.68
2022-09-01T09:54:01.296Z,1015.70
2022-09-01T09:55:01.284Z,1015.67
2022-09-01T09:56:01.294Z,1015.57
2022-09-01T09:57:01.258Z,1015.55
2022-09-01T09:58:01.248Z,1015.56
2022-09-01T09:59:01.243Z,1015.50
2022-09-01T10:00:01.763Z,1015.54
2022-09-01T10:01:01.286Z,1015.42
2022-09-01T10:02:01.204Z,1015.41
2022-09-01T10:03:01.200Z,1015.50
2022-09-01T10:04:01.264Z,1015.46
2022-09-01T10:05:01.197Z,1015.54
2022-09-01T10:06:01.161Z,1015.50
2022-09-01T10:07:01.159Z,1015.48
2022-09-01T10:08:01.142Z,1015.45
2022-09-01T10:09:01.126Z,1015.48
2022-09-01T10:10:01.110Z,1015.45
2022-09-01T10:11:01.105Z,1015.42
2022-09-01T10:12:01.102Z,1015.57
2022-09-01T10:13:02.180Z,1015.48
2022-09-01T10:14:01.098Z,1015.43
2022-09-01T10:15:04.661Z,1015.44
2022-09-01T10:16:03.584Z,1015.39
2022-09-01T10:17:01.673Z,1015.41
2022-09-01T10:18:30.675Z,1015.37
2022-09-01T10:19:02.016Z,1015.40
2022-09-01T10:20:01.007Z,1015.41
2022-09-01T10:21:00.991Z,1015.30
2022-09-01T10:22:00.993Z,1015.36
2022-09-01T10:23:00.971Z,1015.35
2022-09-01T10:24:17.668Z,1015.35
2022-09-01T10:25:01.968Z,1015.28
2022-09-01T10:26:00.948Z,1015.24
2022-09-01T10:27:00.938Z,1015.25
2022-09-01T10:28:00.909Z,1015.31
2022-09-01T10:29:00.924Z,1015.30
2022-09-01T10:31:01.965Z,1015.35
2022-09-01T10:32:30.740Z,1015.41
2022-09-01T10:33:07.975Z,1015.34
2022-09-01T10:34:01.865Z,1015.28
2022-09-01T10:35:00.835Z,1015.20
2022-09-01T10:36:00.852Z,1015.27
2022-09-01T10:37:00.829Z,1015.29
2022-09-01T10:38:00.808Z,1015.36
2022-09-01T10:39:06.189Z,1015.24
2022-09-01T10:40:01.952Z,1015.26
2022-09-01T10:41:00.816Z,1015.23
2022-09-01T10:42:01.106Z,1015.21
2022-09-01T10:43:00.969Z,1015.29
2022-09-01T10:44:02.397Z,1015.20
2022-09-01T10:45:00.726Z,1015.20
2022-09-01T10:46:05.692Z,1015.15
2022-09-01T10:47:04.018Z,1015.19
2022-09-01T10:48:02.049Z,1015.14
2022-09-01T10:49:04.406Z,1015.15
2022-09-01T10:50:01.480Z,1015.07
2022-09-01T10:51:00.877Z,1015.15
2022-09-01T10:52:08.559Z,1015.18
2022-09-01T10:53:01.645Z,1015.15
2022-09-01T10:54:03.663Z,1015.21
2022-09-01T10:55:00.623Z,1015.14
2022-09-01T10:56:01.988Z,1015.07
2022-09-01T10:57:03.931Z,1015.16
2022-09-01T10:58:09.229Z,1015.10
2022-09-01T11:00:01.886Z,1015.18
2022-09-01T11:01:34.883Z,1015.14
2022-09-01T11:03:29.899Z,1015.14
2022-09-01T11:04:01.644Z,1015.01
2022-09-01T11:05:00.752Z,1015.05
2022-09-01T11:06:12.072Z,1015.01
2022-09-01T11:07:16.885Z,1015.12
2022-09-01T11:08:09.151Z,1015.11
2022-09-01T11:09:01.484Z,1015.13
2022-09-01T11:10:10.858Z,1015.03
2022-09-01T11:11:01.438Z,1015.04
2022-09-01T11:12:00.426Z,1014.98
2022-09-01T11:13:00.423Z,1015.14
2022-09-01T11:14:00.420Z,1015.05
2022-09-01T11:15:00.387Z,1014.98
2022-09-01T11:16:00.707Z,1015.06
2022-09-01T11:17:00.472Z,1014.97
2022-09-01T11:18:00.380Z,1015.11
2022-09-01T11:19:00.343Z,1015.06
2022-09-01T11:20:00.337Z,1015.04
2022-09-01T11:21:00.323Z,1015.03
2022-09-01T11:22:00.322Z,1015.01
2022-09-01T11:23:00.299Z,1014.98
2022-09-01T11:24:00.315Z,1015.00
2022-09-01T11:25:12.160Z,1015.01
2022-09-01T11:27:01.267Z,1014.94
2022-09-01T11:28:00.244Z,1014.94
2022-09-01T11:29:00.249Z,1014.88
2022-09-01T11:30:00.236Z,1014.82
2022-09-01T11:31:00.214Z,1014.91
2022-09-01T11:32:00.279Z,1014.88
2022-09-01T11:33:00.184Z,1014.89
2022-09-01T11:34:00.203Z,1014.94
2022-09-01T11:35:00.167Z,1014.87
2022-09-01T11:36:00.147Z,1014.92
2022-09-01T11:37:00.142Z,1014.90
2022-09-01T11:38:00.126Z,1014.99
2022-09-01T11:39:00.134Z,1014.95
2022-09-01T11:40:00.130Z,1015.04
2022-09-01T11:41:00.106Z,1014.93
2022-09-01T11:42:03.479Z,1014.90
2022-09-01T11:43:00.077Z,1014.90
2022-09-01T11:44:00.166Z,1014.95
2022-09-01T11:45:00.050Z,1014.87
2022-09-01T11:46:00.106Z,1014.90
2022-09-01T11:47:00.026Z,1014.84
2022-09-01T11:48:00.030Z,1014.81
2022-09-01T11:49:00.033Z,1014.86
2022-09-01T11:50:00.000Z,1014.83
2022-09-01T11:50:59.983Z,1014.86
2022-09-01T11:51:59.971Z,1014.83
2022-09-01T11:53:04.791Z,1014.92
2022-09-01T11:54:00.957Z,1014.82
2022-09-01T11:54:59.958Z,1014.92
2022-09-01T11:55:59.924Z,1014.92
2022-09-01T11:56:59.914Z,1014.87
2022-09-01T11:57:59.903Z,1014.88
2022-09-01T11:58:59.904Z,1014.97
2022-09-01T11:59:59.920Z,1014.96
2022-09-01T12:00:59.900Z,1014.96
2022-09-01T12:01:59.981Z,1014.79
2022-09-01T12:03:00.060Z,1014.90
2022-09-01T12:03:59.843Z,1014.97
2022-09-01T12:04:59.883Z,1014.91
2022-09-01T12:05:59.809Z,1014.89
2022-09-01T12:06:59.857Z,1014.92
2022-09-01T12:07:59.842Z,1014.93
2022-09-01T12:08:59.901Z,1014.72
2022-09-01T12:09:59.799Z,1014.82
2022-09-01T12:10:59.758Z,1014.79
2022-09-01T12:11:59.758Z,1014.87
2022-09-01T12:12:59.744Z,1014.78
2022-09-01T12:13:59.736Z,1014.89
2022-09-01T12:15:05.729Z,1014.78
2022-09-01T12:16:18.316Z,1014.85
2022-09-01T12:17:00.803Z,1014.86
2022-09-01T12:17:59.678Z,1014.83
2022-09-01T12:18:59.668Z,1014.87
2022-09-01T12:19:59.665Z,1014.76
2022-09-01T12:20:59.651Z,1014.78
2022-09-01T12:21:59.639Z,1014.73
2022-09-01T12:22:59.624Z,1014.70
2022-09-01T12:23:59.613Z,1014.81
2022-09-01T12:24:59.630Z,1014.70
2022-09-01T12:25:59.595Z,1014.78
2022-09-01T12:26:59.598Z,1014.78
2022-09-01T12:27:59.564Z,1014.69
2022-09-01T12:28:59.560Z,1014.70
2022-09-01T12:29:59.581Z,1014.74
2022-09-01T12:30:59.569Z,1014.72
2022-09-01T12:31:59.596Z,1014.73
2022-09-01T12:34:00.530Z,1014.76
2022-09-01T12:34:59.495Z,1014.73
2022-09-01T12:35:59.721Z,1014.70
2022-09-01T12:36:59.480Z,1014.76
2022-09-01T12:37:59.476Z,1014.73
2022-09-01T12:38:59.447Z,1014.76
2022-09-01T12:39:59.435Z,1014.64
2022-09-01T12:41:00.023Z,1014.75
2022-09-01T12:41:59.413Z,1014.69
2022-09-01T12:42:59.402Z,1014.65
2022-09-01T12:43:59.390Z,1014.65
2022-09-01T12:44:59.384Z,1014.67
2022-09-01T12:45:59.456Z,1014.63
2022-09-01T12:46:59.360Z,1014.66
2022-09-01T12:47:59.347Z,1014.63
2022-09-01T12:48:59.335Z,1014.56
2022-09-01T12:49:59.330Z,1014.59
2022-09-01T12:50:59.313Z,1014.57
2022-09-01T12:52:00.786Z,1014.59
2022-09-01T12:52:59.304Z,1014.58
2022-09-01T12:53:59.290Z,1014.61
2022-09-01T12:54:59.274Z,1014.61
2022-09-01T12:55:59.329Z,1014.61
2022-09-01T12:56:59.330Z,1014.60
2022-09-01T12:57:59.288Z,1014.60
2022-09-01T12:58:59.223Z,1014.55
2022-09-01T12:59:59.224Z,1014.49
2022-09-01T13:00:59.376Z,1014.39
2022-09-01T13:01:59.905Z,1014.48
2022-09-01T13:02:59.195Z,1014.48
2022-09-01T13:03:59.200Z,1014.53
2022-09-01T13:04:59.161Z,1014.50
2022-09-01T13:05:59.141Z,1014.49
2022-09-01T13:06:59.149Z,1014.44
2022-09-01T13:07:59.153Z,1014.57
2022-09-01T13:08:59.134Z,1014.46
2022-09-01T13:09:59.104Z,1014.49
2022-09-01T13:10:59.090Z,1014.41
2022-09-01T13:12:07.315Z,1014.43
2022-09-01T13:13:00.083Z,1014.47
2022-09-01T13:13:59.059Z,1014.41
2022-09-01T13:14:59.182Z,1014.44
2022-09-01T13:15:59.068Z,1014.36
2022-09-01T13:16:59.027Z,1014.40
2022-09-01T13:17:59.040Z,1014.31
2022-09-01T13:19:21.862Z,1014.35
2022-09-01T13:20:00.048Z,1014.29
2022-09-01T13:20:58.990Z,1014.31
2022-09-01T13:21:58.976Z,1014.32
2022-09-01T13:22:59.002Z,1014.30
2022-09-01T13:23:58.949Z,1014.28
2022-09-01T13:24:58.935Z,1014.29
2022-09-01T13:25:58.929Z,1014.27
2022-09-01T13:27:59.913Z,1014.22
2022-09-01T13:28:58.905Z,1014.25
2022-09-01T13:29:58.908Z,1014.22
2022-09-01T13:34:21.821Z,1014.19
2022-09-01T13:34:59.886Z,1014.14
2022-09-01T13:35:59.140Z,1014.15